sensor_id;sensor_type;location;lat;lon;timestamp;temperature;humidity
57709;SHT35;42558;52.388;13.390;2022-12-07T00:02:12;2.26;91.97
57709;SHT35;42558;52.388;13.390;2022-12-07T00:04:42;2.27;92.06
57709;SHT35;42558;52.388;13.390;2022-12-07T00:07:12;2.24;92.04
57709;SHT35;42558;52.388;13.390;2022-12-07T00:09:42;2.26;92.04
57709;SHT35;42558;52.388;13.390;2022-12-07T00:12:12;2.23;92.02
57709;SHT35;42558;52.388;13.390;2022-12-07T00:14:44;2.18;91.81
57709;SHT35;42558;52.388;13.390;2022-12-07T00:17:13;2.16;91.60
57709;SHT35;42558;52.388;13.390;2022-12-07T00:19:43;2.13;91.41
57709;SHT35;42558;52.388;13.390;2022-12-07T00:22:13;2.11;91.22
57709;SHT35;42558;52.388;13.390;2022-12-07T00:24:43;2.08;90.90
57709;SHT35;42558;52.388;13.390;2022-12-07T00:27:12;2.06;90.72
57709;SHT35;42558;52.388;13.390;2022-12-07T00:29:42;2.01;90.02
57709;SHT35;42558;52.388;13.390;2022-12-07T00:32:12;2.01;89.84
57709;SHT35;42558;52.388;13.390;2022-12-07T00:34:42;2.03;89.93
57709;SHT35;42558;52.388;13.390;2022-12-07T00:37:12;1.99;89.66
57709;SHT35;42558;52.388;13.390;2022-12-07T00:39:42;1.97;89.57
57709;SHT35;42558;52.388;13.390;2022-12-07T00:42:12;1.96;89.58
57709;SHT35;42558;52.388;13.390;2022-12-07T00:44:43;1.93;89.39
57709;SHT35;42558;52.388;13.390;2022-12-07T00:47:13;1.85;89.06
57709;SHT35;42558;52.388;13.390;2022-12-07T00:49:42;1.72;88.65
57709;SHT35;42558;52.388;13.390;2022-12-07T00:52:12;1.68;88.74
57709;SHT35;42558;52.388;13.390;2022-12-07T00:54:42;1.63;88.83
57709;SHT35;42558;52.388;13.390;2022-12-07T00:57:10;1.51;88.78
57709;SHT35;42558;52.388;13.390;2022-12-07T00:59:39;1.46;88.81
57709;SHT35;42558;52.388;13.390;2022-12-07T01:02:07;1.48;88.98
57709;SHT35;42558;52.388;13.390;2022-12-07T01:04:36;1.44;89.03
57709;SHT35;42558;52.388;13.390;2022-12-07T01:07:04;1.43;89.04
57709;SHT35;42558;52.388;13.390;2022-12-07T01:09:33;1.41;89.06
57709;SHT35;42558;52.388;13.390;2022-12-07T01:12:02;1.42;89.21
57709;SHT35;42558;52.388;13.390;2022-12-07T01:14:32;1.42;89.11
57709;SHT35;42558;52.388;13.390;2022-12-07T01:17:03;1.43;88.98
57709;SHT35;42558;52.388;13.390;2022-12-07T01:19:33;1.47;89.21
57709;SHT35;42558;52.388;13.390;2022-12-07T01:22:03;1.50;89.37
57709;SHT35;42558;52.388;13.390;2022-12-07T01:24:32;1.48;89.30
57709;SHT35;42558;52.388;13.390;2022-12-07T01:27:02;1.48;89.21
57709;SHT35;42558;52.388;13.390;2022-12-07T01:29:32;1.51;89.20
57709;SHT35;42558;52.388;13.390;2022-12-07T01:32:02;1.52;89.20
57709;SHT35;42558;52.388;13.390;2022-12-07T01:34:32;1.50;89.10
57709;SHT35;42558;52.388;13.390;2022-12-07T01:37:02;1.50;89.08
57709;SHT35;42558;52.388;13.390;2022-12-07T01:39:30;1.51;89.07
57709;SHT35;42558;52.388;13.390;2022-12-07T01:41:59;1.48;89.00
57709;SHT35;42558;52.388;13.390;2022-12-07T01:44:30;1.48;89.11
57709;SHT35;42558;52.388;13.390;2022-12-07T01:47:03;1.44;89.05
57709;SHT35;42558;52.388;13.390;2022-12-07T01:49:35;1.46;89.22
57709;SHT35;42558;52.388;13.390;2022-12-07T01:55:00;1.45;89.52
57709;SHT35;42558;52.388;13.390;2022-12-07T01:57:36;1.51;89.75
57709;SHT35;42558;52.388;13.390;2022-12-07T02:00:12;1.48;89.77
57709;SHT35;42558;52.388;13.390;2022-12-07T02:02:45;1.36;89.65
57709;SHT35;42558;52.388;13.390;2022-12-07T02:05:23;1.31;89.63
57709;SHT35;42558;52.388;13.390;2022-12-07T02:07:55;1.25;89.55
57709;SHT35;42558;52.388;13.390;2022-12-07T02:10:28;1.25;89.58
57709;SHT35;42558;52.388;13.390;2022-12-07T02:13:13;1.27;89.70
57709;SHT35;42558;52.388;13.390;2022-12-07T02:16:05;1.29;89.86
57709;SHT35;42558;52.388;13.390;2022-12-07T02:31:37;0.99;90.20
57709;SHT35;42558;52.388;13.390;2022-12-07T02:34:31;0.99;90.20
57709;SHT35;42558;52.388;13.390;2022-12-07T02:37:10;0.96;90.22
57709;SHT35;42558;52.388;13.390;2022-12-07T02:39:57;0.96;90.22
57709;SHT35;42558;52.388;13.390;2022-12-07T02:42:38;0.93;90.17
57709;SHT35;42558;52.388;13.390;2022-12-07T02:45:15;0.92;90.12
57709;SHT35;42558;52.388;13.390;2022-12-07T02:47:51;0.91;90.10
57709;SHT35;42558;52.388;13.390;2022-12-07T02:50:28;0.89;90.13
57709;SHT35;42558;52.388;13.390;2022-12-07T02:52:58;0.87;90.18
57709;SHT35;42558;52.388;13.390;2022-12-07T02:55:33;0.87;90.25
57709;SHT35;42558;52.388;13.390;2022-12-07T02:58:34;0.90;90.29
57709;SHT35;42558;52.388;13.390;2022-12-07T03:01:35;0.96;90.26
57709;SHT35;42558;52.388;13.390;2022-12-07T03:07:29;0.92;90.25
57709;SHT35;42558;52.388;13.390;2022-12-07T03:10:24;0.93;90.40
57709;SHT35;42558;52.388;13.390;2022-12-07T03:16:02;0.97;90.50
57709;SHT35;42558;52.388;13.390;2022-12-07T03:18:46;1.01;90.59
57709;SHT35;42558;52.388;13.390;2022-12-07T03:21:32;1.03;90.60
57709;SHT35;42558;52.388;13.390;2022-12-07T03:24:27;1.03;90.61
57709;SHT35;42558;52.388;13.390;2022-12-07T03:27:09;1.04;90.70
57709;SHT35;42558;52.388;13.390;2022-12-07T03:29:56;1.02;90.79
57709;SHT35;42558;52.388;13.390;2022-12-07T03:43:31;1.03;90.90
57709;SHT35;42558;52.388;13.390;2022-12-07T03:49:13;1.03;91.06
57709;SHT35;42558;52.388;13.390;2022-12-07T03:52:02;1.05;91.19
57709;SHT35;42558;52.388;13.390;2022-12-07T03:55:10;1.04;91.19
57709;SHT35;42558;52.388;13.390;2022-12-07T03:58:04;1.05;91.36
57709;SHT35;42558;52.388;13.390;2022-12-07T04:00:40;1.08;91.40
57709;SHT35;42558;52.388;13.390;2022-12-07T04:03:12;1.11;91.40
57709;SHT35;42558;52.388;13.390;2022-12-07T04:05:42;1.14;91.41
57709;SHT35;42558;52.388;13.390;2022-12-07T04:08:13;1.14;91.49
57709;SHT35;42558;52.388;13.390;2022-12-07T04:10:43;1.14;91.51
57709;SHT35;42558;52.388;13.390;2022-12-07T04:13:13;1.12;91.65
57709;SHT35;42558;52.388;13.390;2022-12-07T04:15:44;1.15;91.71
57709;SHT35;42558;52.388;13.390;2022-12-07T04:18:14;1.14;91.80
57709;SHT35;42558;52.388;13.390;2022-12-07T04:20:45;1.14;91.85
57709;SHT35;42558;52.388;13.390;2022-12-07T04:23:15;1.10;91.97
57709;SHT35;42558;52.388;13.390;2022-12-07T04:25:47;1.10;92.06
57709;SHT35;42558;52.388;13.390;2022-12-07T04:28:18;1.06;92.28
57709;SHT35;42558;52.388;13.390;2022-12-07T04:30:47;1.03;92.31
57709;SHT35;42558;52.388;13.390;2022-12-07T04:33:17;1.00;92.41
57709;SHT35;42558;52.388;13.390;2022-12-07T04:35:47;1.02;92.55
57709;SHT35;42558;52.388;13.390;2022-12-07T04:38:17;1.02;92.77
57709;SHT35;42558;52.388;13.390;2022-12-07T04:40:46;1.03;92.81
57709;SHT35;42558;52.388;13.390;2022-12-07T04:43:16;1.03;92.97
57709;SHT35;42558;52.388;13.390;2022-12-07T04:45:46;1.05;93.16
57709;SHT35;42558;52.388;13.390;2022-12-07T04:48:17;1.07;93.36
57709;SHT35;42558;52.388;13.390;2022-12-07T04:50:48;1.12;93.33
57709;SHT35;42558;52.388;13.390;2022-12-07T04:53:19;1.16;93.40
57709;SHT35;42558;52.388;13.390;2022-12-07T04:55:49;1.21;93.40
57709;SHT35;42558;52.388;13.390;2022-12-07T04:58:19;1.25;93.41
57709;SHT35;42558;52.388;13.390;2022-12-07T05:00:49;1.28;93.47
57709;SHT35;42558;52.388;13.390;2022-12-07T05:03:22;1.32;93.53
57709;SHT35;42558;52.388;13.390;2022-12-07T05:05:52;1.35;93.58
57709;SHT35;42558;52.388;13.390;2022-12-07T05:08:22;1.38;93.60
57709;SHT35;42558;52.388;13.390;2022-12-07T05:10:52;1.40;93.60
57709;SHT35;42558;52.388;13.390;2022-12-07T05:13:22;1.44;93.60
57709;SHT35;42558;52.388;13.390;2022-12-07T05:15:50;1.45;93.60
57709;SHT35;42558;52.388;13.390;2022-12-07T05:18:19;1.49;93.60
57709;SHT35;42558;52.388;13.390;2022-12-07T05:20:47;1.53;93.60
57709;SHT35;42558;52.388;13.390;2022-12-07T05:23:16;1.52;93.59
57709;SHT35;42558;52.388;13.390;2022-12-07T05:25:44;1.53;93.58
57709;SHT35;42558;52.388;13.390;2022-12-07T05:28:12;1.55;93.53
57709;SHT35;42558;52.388;13.390;2022-12-07T05:30:41;1.54;93.54
57709;SHT35;42558;52.388;13.390;2022-12-07T05:33:09;1.57;93.56
57709;SHT35;42558;52.388;13.390;2022-12-07T05:35:38;1.59;93.52
57709;SHT35;42558;52.388;13.390;2022-12-07T05:38:06;1.59;93.52
57709;SHT35;42558;52.388;13.390;2022-12-07T05:40:35;1.62;93.52
57709;SHT35;42558;52.388;13.390;2022-12-07T05:43:06;1.64;93.60
57709;SHT35;42558;52.388;13.390;2022-12-07T05:45:34;1.66;93.63
57709;SHT35;42558;52.388;13.390;2022-12-07T05:48:03;1.71;93.70
57709;SHT35;42558;52.388;13.390;2022-12-07T05:50:31;1.71;93.70
57709;SHT35;42558;52.388;13.390;2022-12-07T05:52:59;1.75;93.71
57709;SHT35;42558;52.388;13.390;2022-12-07T05:55:28;1.77;93.70
57709;SHT35;42558;52.388;13.390;2022-12-07T05:57:56;1.80;93.78
57709;SHT35;42558;52.388;13.390;2022-12-07T06:00:45;1.83;93.81
57709;SHT35;42558;52.388;13.390;2022-12-07T06:03:19;1.85;93.86
57709;SHT35;42558;52.388;13.390;2022-12-07T06:05:49;1.87;93.93
57709;SHT35;42558;52.388;13.390;2022-12-07T06:08:22;1.89;94.00
57709;SHT35;42558;52.388;13.390;2022-12-07T06:10:52;1.91;94.00
57709;SHT35;42558;52.388;13.390;2022-12-07T06:13:39;1.93;93.95
57709;SHT35;42558;52.388;13.390;2022-12-07T06:16:15;1.95;93.96
57709;SHT35;42558;52.388;13.390;2022-12-07T06:18:44;1.98;93.99
57709;SHT35;42558;52.388;13.390;2022-12-07T06:21:12;2.00;94.00
57709;SHT35;42558;52.388;13.390;2022-12-07T06:23:40;2.00;94.00
57709;SHT35;42558;52.388;13.390;2022-12-07T06:26:09;2.02;94.00
57709;SHT35;42558;52.388;13.390;2022-12-07T06:28:37;2.02;94.04
57709;SHT35;42558;52.388;13.390;2022-12-07T06:31:06;2.05;94.10
57709;SHT35;42558;52.388;13.390;2022-12-07T06:33:42;2.08;94.10
57709;SHT35;42558;52.388;13.390;2022-12-07T06:36:12;2.09;94.13
57709;SHT35;42558;52.388;13.390;2022-12-07T06:38:42;2.11;94.10
57709;SHT35;42558;52.388;13.390;2022-12-07T06:41:12;2.12;94.10
57709;SHT35;42558;52.388;13.390;2022-12-07T06:43:42;2.16;94.11
57709;SHT35;42558;52.388;13.390;2022-12-07T06:46:12;2.20;94.15
57709;SHT35;42558;52.388;13.390;2022-12-07T06:48:43;2.26;94.13
57709;SHT35;42558;52.388;13.390;2022-12-07T06:51:13;2.28;94.10
57709;SHT35;42558;52.388;13.390;2022-12-07T06:53:43;2.33;94.10
57709;SHT35;42558;52.388;13.390;2022-12-07T06:56:13;2.35;94.10
57709;SHT35;42558;52.388;13.390;2022-12-07T06:58:43;2.37;94.08
57709;SHT35;42558;52.388;13.390;2022-12-07T07:01:13;2.41;94.04
57709;SHT35;42558;52.388;13.390;2022-12-07T07:03:46;2.42;93.98
57709;SHT35;42558;52.388;13.390;2022-12-07T07:06:16;2.44;93.90
57709;SHT35;42558;52.388;13.390;2022-12-07T07:08:46;2.50;93.90
57709;SHT35;42558;52.388;13.390;2022-12-07T07:11:16;2.52;93.87
57709;SHT35;42558;52.388;13.390;2022-12-07T07:13:46;2.55;93.81
57709;SHT35;42558;52.388;13.390;2022-12-07T07:16:16;2.57;93.80
57709;SHT35;42558;52.388;13.390;2022-12-07T07:18:46;2.61;93.76
57709;SHT35;42558;52.388;13.390;2022-12-07T07:21:16;2.64;93.64
57709;SHT35;42558;52.388;13.390;2022-12-07T07:23:46;2.68;93.55
57709;SHT35;42558;52.388;13.390;2022-12-07T07:26:15;2.71;93.45
57709;SHT35;42558;52.388;13.390;2022-12-07T07:28:51;2.72;93.38
57709;SHT35;42558;52.388;13.390;2022-12-07T07:31:21;2.74;93.26
57709;SHT35;42558;52.388;13.390;2022-12-07T07:33:51;2.77;93.23
57709;SHT35;42558;52.388;13.390;2022-12-07T07:36:20;2.79;93.20
57709;SHT35;42558;52.388;13.390;2022-12-07T07:38:51;2.81;93.18
57709;SHT35;42558;52.388;13.390;2022-12-07T07:41:20;2.84;93.14
57709;SHT35;42558;52.388;13.390;2022-12-07T07:43:50;2.87;93.12
57709;SHT35;42558;52.388;13.390;2022-12-07T07:46:20;2.87;93.10
57709;SHT35;42558;52.388;13.390;2022-12-07T07:48:50;2.89;93.12
57709;SHT35;42558;52.388;13.390;2022-12-07T07:51:19;2.93;93.11
57709;SHT35;42558;52.388;13.390;2022-12-07T07:53:49;2.93;93.10
57709;SHT35;42558;52.388;13.390;2022-12-07T07:56:19;2.93;93.02
57709;SHT35;42558;52.388;13.390;2022-12-07T07:58:51;2.96;92.65
57709;SHT35;42558;52.388;13.390;2022-12-07T08:01:22;2.98;92.16
57709;SHT35;42558;52.388;13.390;2022-12-07T08:03:52;3.01;91.79
57709;SHT35;42558;52.388;13.390;2022-12-07T08:06:22;3.02;91.34
57709;SHT35;42558;52.388;13.390;2022-12-07T08:08:57;3.04;91.10
57709;SHT35;42558;52.388;13.390;2022-12-07T08:11:26;3.08;90.92
57709;SHT35;42558;52.388;13.390;2022-12-07T08:13:54;3.11;90.70
57709;SHT35;42558;52.388;13.390;2022-12-07T08:16:22;3.14;90.74
57709;SHT35;42558;52.388;13.390;2022-12-07T08:18:51;3.16;90.88
57709;SHT35;42558;52.388;13.390;2022-12-07T08:21:19;3.19;90.89
57709;SHT35;42558;52.388;13.390;2022-12-07T08:23:48;3.21;90.82
57709;SHT35;42558;52.388;13.390;2022-12-07T08:26:16;3.23;90.78
57709;SHT35;42558;52.388;13.390;2022-12-07T08:28:44;3.26;90.37
57709;SHT35;42558;52.388;13.390;2022-12-07T08:31:14;3.29;89.94
57709;SHT35;42558;52.388;13.390;2022-12-07T08:33:45;3.31;89.38
57709;SHT35;42558;52.388;13.390;2022-12-07T08:36:16;3.32;89.23
57709;SHT35;42558;52.388;13.390;2022-12-07T08:38:44;3.33;88.37
57709;SHT35;42558;52.388;13.390;2022-12-07T08:41:34;3.38;87.76
57709;SHT35;42558;52.388;13.390;2022-12-07T08:44:04;3.41;87.65
57709;SHT35;42558;52.388;13.390;2022-12-07T08:46:38;3.42;87.88
57709;SHT35;42558;52.388;13.390;2022-12-07T08:49:36;3.40;88.03
57709;SHT35;42558;52.388;13.390;2022-12-07T08:52:12;3.43;88.04
57709;SHT35;42558;52.388;13.390;2022-12-07T08:54:42;3.47;87.93
57709;SHT35;42558;52.388;13.390;2022-12-07T08:57:13;3.45;87.66
57709;SHT35;42558;52.388;13.390;2022-12-07T08:59:43;3.47;85.62
57709;SHT35;42558;52.388;13.390;2022-12-07T09:02:12;3.46;84.20
57709;SHT35;42558;52.388;13.390;2022-12-07T09:04:42;3.43;83.58
57709;SHT35;42558;52.388;13.390;2022-12-07T09:07:12;3.42;83.70
57709;SHT35;42558;52.388;13.390;2022-12-07T09:09:42;3.42;84.22
57709;SHT35;42558;52.388;13.390;2022-12-07T09:12:12;3.41;84.90
57709;SHT35;42558;52.388;13.390;2022-12-07T09:14:43;3.36;85.32
57709;SHT35;42558;52.388;13.390;2022-12-07T09:17:13;3.36;84.24
57709;SHT35;42558;52.388;13.390;2022-12-07T09:19:41;3.37;83.20
57709;SHT35;42558;52.388;13.390;2022-12-07T09:22:11;3.35;80.66
57709;SHT35;42558;52.388;13.390;2022-12-07T09:24:41;3.24;80.71
57709;SHT35;42558;52.388;13.390;2022-12-07T09:27:11;3.22;81.44
57709;SHT35;42558;52.388;13.390;2022-12-07T09:29:41;3.22;80.70
57709;SHT35;42558;52.388;13.390;2022-12-07T09:32:11;3.24;81.41
57709;SHT35;42558;52.388;13.390;2022-12-07T09:34:41;3.22;80.97
57709;SHT35;42558;52.388;13.390;2022-12-07T09:37:11;3.20;81.20
57709;SHT35;42558;52.388;13.390;2022-12-07T09:39:40;3.25;81.02
57709;SHT35;42558;52.388;13.390;2022-12-07T09:42:26;3.26;80.77
57709;SHT35;42558;52.388;13.390;2022-12-07T09:45:04;3.27;80.88
57709;SHT35;42558;52.388;13.390;2022-12-07T09:47:41;3.33;81.13
57709;SHT35;42558;52.388;13.390;2022-12-07T09:50:13;3.34;81.75
57709;SHT35;42558;52.388;13.390;2022-12-07T09:52:48;3.39;81.68
57709;SHT35;42558;52.388;13.390;2022-12-07T09:55:19;3.40;81.74
57709;SHT35;42558;52.388;13.390;2022-12-07T09:57:55;3.38;82.00
57709;SHT35;42558;52.388;13.390;2022-12-07T10:00:29;3.31;80.81
57709;SHT35;42558;52.388;13.390;2022-12-07T10:02:59;3.30;80.60
57709;SHT35;42558;52.388;13.390;2022-12-07T10:08:12;3.26;80.15
57709;SHT35;42558;52.388;13.390;2022-12-07T10:10:46;3.24;80.46
57709;SHT35;42558;52.388;13.390;2022-12-07T10:13:35;3.18;80.73
57709;SHT35;42558;52.388;13.390;2022-12-07T10:19:32;3.20;81.92
57709;SHT35;42558;52.388;13.390;2022-12-07T10:22:10;3.16;81.95
57709;SHT35;42558;52.388;13.390;2022-12-07T10:24:46;3.16;81.69
57709;SHT35;42558;52.388;13.390;2022-12-07T10:27:26;3.13;81.67
57709;SHT35;42558;52.388;13.390;2022-12-07T10:30:01;3.13;80.32
57709;SHT35;42558;52.388;13.390;2022-12-07T10:32:38;3.17;80.56
57709;SHT35;42558;52.388;13.390;2022-12-07T10:35:19;3.19;81.03
57709;SHT35;42558;52.388;13.390;2022-12-07T10:37:59;3.21;81.48
57709;SHT35;42558;52.388;13.390;2022-12-07T10:40:34;3.25;80.99
57709;SHT35;42558;52.388;13.390;2022-12-07T10:49:16;3.94;79.91
57709;SHT35;42558;52.388;13.390;2022-12-07T10:52:16;3.81;79.91
57709;SHT35;42558;52.388;13.390;2022-12-07T11:00:49;3.68;81.97
57709;SHT35;42558;52.388;13.390;2022-12-07T11:03:41;3.58;82.36
57709;SHT35;42558;52.388;13.390;2022-12-07T11:09:08;3.61;82.98
57709;SHT35;42558;52.388;13.390;2022-12-07T11:20:52;3.61;82.62
57709;SHT35;42558;52.388;13.390;2022-12-07T11:26:41;3.71;83.24
57709;SHT35;42558;52.388;13.390;2022-12-07T11:38:17;3.75;81.60
57709;SHT35;42558;52.388;13.390;2022-12-07T11:41:02;3.72;81.57
57709;SHT35;42558;52.388;13.390;2022-12-07T11:47:10;3.75;82.22
57709;SHT35;42558;52.388;13.390;2022-12-07T11:52:58;3.81;82.30
57709;SHT35;42558;52.388;13.390;2022-12-07T12:04:50;3.86;82.49
57709;SHT35;42558;52.388;13.390;2022-12-07T12:07:25;3.91;82.47
57709;SHT35;42558;52.388;13.390;2022-12-07T12:10:18;3.98;82.67
57709;SHT35;42558;52.388;13.390;2022-12-07T12:22:52;3.95;81.78
57709;SHT35;42558;52.388;13.390;2022-12-07T12:25:40;3.94;82.22
57709;SHT35;42558;52.388;13.390;2022-12-07T12:33:53;3.95;82.09
57709;SHT35;42558;52.388;13.390;2022-12-07T12:39:17;4.02;81.48
57709;SHT35;42558;52.388;13.390;2022-12-07T12:46:56;4.12;81.79
57709;SHT35;42558;52.388;13.390;2022-12-07T12:50:15;4.18;82.19
57709;SHT35;42558;52.388;13.390;2022-12-07T12:52:50;4.18;81.59
57709;SHT35;42558;52.388;13.390;2022-12-07T13:00:49;4.36;81.48
57709;SHT35;42558;52.388;13.390;2022-12-07T13:04:03;4.36;81.49
57709;SHT35;42558;52.388;13.390;2022-12-07T13:06:49;4.34;81.50
57709;SHT35;42558;52.388;13.390;2022-12-07T13:09:27;4.34;81.65
57709;SHT35;42558;52.388;13.390;2022-12-07T13:12:05;4.33;81.26
57709;SHT35;42558;52.388;13.390;2022-12-07T13:14:53;4.37;81.63
57709;SHT35;42558;52.388;13.390;2022-12-07T13:20:01;4.34;81.12
57709;SHT35;42558;52.388;13.390;2022-12-07T13:25:18;4.30;81.82
57709;SHT35;42558;52.388;13.390;2022-12-07T13:28:02;4.29;82.09
57709;SHT35;42558;52.388;13.390;2022-12-07T13:31:29;4.29;82.10
57709;SHT35;42558;52.388;13.390;2022-12-07T13:33:48;4.25;82.05
57709;SHT35;42558;52.388;13.390;2022-12-07T13:36:29;4.21;81.86
57709;SHT35;42558;52.388;13.390;2022-12-07T13:41:44;4.13;82.09
57709;SHT35;42558;52.388;13.390;2022-12-07T13:44:20;4.09;82.05
57709;SHT35;42558;52.388;13.390;2022-12-07T13:46:57;4.08;82.09
57709;SHT35;42558;52.388;13.390;2022-12-07T13:49:48;4.02;82.31
57709;SHT35;42558;52.388;13.390;2022-12-07T13:57:29;3.99;82.30
57709;SHT35;42558;52.388;13.390;2022-12-07T14:00:04;3.99;81.97
57709;SHT35;42558;52.388;13.390;2022-12-07T14:03:25;3.94;82.35
57709;SHT35;42558;52.388;13.390;2022-12-07T14:06:04;3.92;82.22
57709;SHT35;42558;52.388;13.390;2022-12-07T14:09:07;3.91;82.44
57709;SHT35;42558;52.388;13.390;2022-12-07T14:11:47;3.87;82.72
57709;SHT35;42558;52.388;13.390;2022-12-07T14:14:22;3.85;83.07
57709;SHT35;42558;52.388;13.390;2022-12-07T14:17:20;3.82;83.07
57709;SHT35;42558;52.388;13.390;2022-12-07T14:22:28;3.82;83.11
57709;SHT35;42558;52.388;13.390;2022-12-07T14:25:16;3.87;82.94
57709;SHT35;42558;52.388;13.390;2022-12-07T14:27:56;3.87;83.28
57709;SHT35;42558;52.388;13.390;2022-12-07T14:30:30;3.86;83.14
57709;SHT35;42558;52.388;13.390;2022-12-07T14:33:03;3.84;83.44
57709;SHT35;42558;52.388;13.390;2022-12-07T14:35:34;3.82;83.55
57709;SHT35;42558;52.388;13.390;2022-12-07T14:38:09;3.82;83.42
57709;SHT35;42558;52.388;13.390;2022-12-07T14:40:39;3.81;83.35
57709;SHT35;42558;52.388;13.390;2022-12-07T14:43:10;3.78;83.46
57709;SHT35;42558;52.388;13.390;2022-12-07T14:45:45;3.73;83.68
57709;SHT35;42558;52.388;13.390;2022-12-07T14:48:15;3.66;83.85
57709;SHT35;42558;52.388;13.390;2022-12-07T14:51:07;3.63;83.76
57709;SHT35;42558;52.388;13.390;2022-12-07T14:54:01;3.56;83.82
57709;SHT35;42558;52.388;13.390;2022-12-07T14:56:34;3.53;83.87
57709;SHT35;42558;52.388;13.390;2022-12-07T14:59:04;3.51;83.99
57709;SHT35;42558;52.388;13.390;2022-12-07T15:01:34;3.44;84.18
57709;SHT35;42558;52.388;13.390;2022-12-07T15:04:04;3.39;84.24
57709;SHT35;42558;52.388;13.390;2022-12-07T15:06:34;3.36;84.30
57709;SHT35;42558;52.388;13.390;2022-12-07T15:09:02;3.32;84.35
57709;SHT35;42558;52.388;13.390;2022-12-07T15:11:30;3.24;84.59
57709;SHT35;42558;52.388;13.390;2022-12-07T15:13:59;3.17;84.78
57709;SHT35;42558;52.388;13.390;2022-12-07T15:16:39;3.10;84.87
57709;SHT35;42558;52.388;13.390;2022-12-07T15:19:30;3.06;84.92
57709;SHT35;42558;52.388;13.390;2022-12-07T15:21:58;2.99;85.14
57709;SHT35;42558;52.388;13.390;2022-12-07T15:24:28;2.96;85.26
57709;SHT35;42558;52.388;13.390;2022-12-07T15:26:58;2.90;85.38
57709;SHT35;42558;52.388;13.390;2022-12-07T15:29:28;2.81;85.66
57709;SHT35;42558;52.388;13.390;2022-12-07T15:31:58;2.75;85.90
57709;SHT35;42558;52.388;13.390;2022-12-07T15:34:28;2.73;85.93
57709;SHT35;42558;52.388;13.390;2022-12-07T15:37:08;2.69;85.94
57709;SHT35;42558;52.388;13.390;2022-12-07T15:39:37;2.66;86.03
57709;SHT35;42558;52.388;13.390;2022-12-07T15:42:07;2.61;86.14
57709;SHT35;42558;52.388;13.390;2022-12-07T15:44:41;2.58;86.41
57709;SHT35;42558;52.388;13.390;2022-12-07T15:47:31;2.54;86.55
57709;SHT35;42558;52.388;13.390;2022-12-07T15:50:25;2.52;86.68
57709;SHT35;42558;52.388;13.390;2022-12-07T15:52:55;2.50;86.89
57709;SHT35;42558;52.388;13.390;2022-12-07T15:55:25;2.47;87.03
57709;SHT35;42558;52.388;13.390;2022-12-07T15:57:55;2.44;87.17
57709;SHT35;42558;52.388;13.390;2022-12-07T16:00:25;2.43;87.28
57709;SHT35;42558;52.388;13.390;2022-12-07T16:02:54;2.42;87.24
57709;SHT35;42558;52.388;13.390;2022-12-07T16:05:24;2.38;87.17
57709;SHT35;42558;52.388;13.390;2022-12-07T16:07:54;2.36;87.44
57709;SHT35;42558;52.388;13.390;2022-12-07T16:10:24;2.38;87.48
57709;SHT35;42558;52.388;13.390;2022-12-07T16:12:54;2.34;87.65
57709;SHT35;42558;52.388;13.390;2022-12-07T16:15:24;2.34;87.68
57709;SHT35;42558;52.388;13.390;2022-12-07T16:17:54;2.34;87.68
57709;SHT35;42558;52.388;13.390;2022-12-07T16:20:24;2.35;87.54
57709;SHT35;42558;52.388;13.390;2022-12-07T16:22:55;2.34;87.43
57709;SHT35;42558;52.388;13.390;2022-12-07T16:25:24;2.34;87.29
57709;SHT35;42558;52.388;13.390;2022-12-07T16:27:55;2.28;87.39
57709;SHT35;42558;52.388;13.390;2022-12-07T16:30:25;2.34;87.32
57709;SHT35;42558;52.388;13.390;2022-12-07T16:32:55;2.39;86.83
57709;SHT35;42558;52.388;13.390;2022-12-07T16:35:31;2.32;86.88
57709;SHT35;42558;52.388;13.390;2022-12-07T16:38:00;2.29;87.10
57709;SHT35;42558;52.388;13.390;2022-12-07T16:40:29;2.27;87.23
57709;SHT35;42558;52.388;13.390;2022-12-07T16:42:57;2.28;87.34
57709;SHT35;42558;52.388;13.390;2022-12-07T16:45:26;2.30;87.29
57709;SHT35;42558;52.388;13.390;2022-12-07T16:47:54;2.33;87.26
57709;SHT35;42558;52.388;13.390;2022-12-07T16:50:22;2.36;87.10
57709;SHT35;42558;52.388;13.390;2022-12-07T16:52:51;2.32;87.11
57709;SHT35;42558;52.388;13.390;2022-12-07T16:55:19;2.31;87.19
57709;SHT35;42558;52.388;13.390;2022-12-07T16:57:48;2.34;87.05
57709;SHT35;42558;52.388;13.390;2022-12-07T17:00:16;2.37;86.76
57709;SHT35;42558;52.388;13.390;2022-12-07T17:02:45;2.33;86.80
57709;SHT35;42558;52.388;13.390;2022-12-07T17:05:13;2.29;86.76
57709;SHT35;42558;52.388;13.390;2022-12-07T17:07:41;2.25;86.97
57709;SHT35;42558;52.388;13.390;2022-12-07T17:10:10;2.21;86.97
57709;SHT35;42558;52.388;13.390;2022-12-07T17:12:37;2.12;87.10
57709;SHT35;42558;52.388;13.390;2022-12-07T17:15:06;2.10;87.35
57709;SHT35;42558;52.388;13.390;2022-12-07T17:17:56;2.12;87.24
57709;SHT35;42558;52.388;13.390;2022-12-07T17:20:26;2.10;87.28
57709;SHT35;42558;52.388;13.390;2022-12-07T17:22:56;2.12;87.16
57709;SHT35;42558;52.388;13.390;2022-12-07T17:25:26;2.12;87.07
57709;SHT35;42558;52.388;13.390;2022-12-07T17:27:56;2.14;86.99
57709;SHT35;42558;52.388;13.390;2022-12-07T17:30:26;2.11;86.85
57709;SHT35;42558;52.388;13.390;2022-12-07T17:32:55;2.07;86.94
57709;SHT35;42558;52.388;13.390;2022-12-07T17:35:23;2.03;86.92
57709;SHT35;42558;52.388;13.390;2022-12-07T17:37:50;1.98;87.12
57709;SHT35;42558;52.388;13.390;2022-12-07T17:40:20;1.96;87.15
57709;SHT35;42558;52.388;13.390;2022-12-07T17:42:49;1.90;87.30
57709;SHT35;42558;52.388;13.390;2022-12-07T17:45:19;1.85;87.41
57709;SHT35;42558;52.388;13.390;2022-12-07T17:47:49;1.78;87.36
57709;SHT35;42558;52.388;13.390;2022-12-07T17:50:19;1.70;87.70
57709;SHT35;42558;52.388;13.390;2022-12-07T17:53:09;1.64;87.82
57709;SHT35;42558;52.388;13.390;2022-12-07T17:55:39;1.59;88.08
57709;SHT35;42558;52.388;13.390;2022-12-07T17:58:29;1.56;88.22
57709;SHT35;42558;52.388;13.390;2022-12-07T18:00:59;1.51;88.33
57709;SHT35;42558;52.388;13.390;2022-12-07T18:03:29;1.48;88.59
57709;SHT35;42558;52.388;13.390;2022-12-07T18:05:59;1.48;88.71
57709;SHT35;42558;52.388;13.390;2022-12-07T18:08:32;1.46;88.69
57709;SHT35;42558;52.388;13.390;2022-12-07T18:11:05;1.43;88.78
57709;SHT35;42558;52.388;13.390;2022-12-07T18:13:35;1.43;88.88
57709;SHT35;42558;52.388;13.390;2022-12-07T18:16:05;1.36;88.80
57709;SHT35;42558;52.388;13.390;2022-12-07T18:18:43;1.31;88.90
57709;SHT35;42558;52.388;13.390;2022-12-07T18:21:21;1.28;89.15
57709;SHT35;42558;52.388;13.390;2022-12-07T18:23:56;1.25;89.16
57709;SHT35;42558;52.388;13.390;2022-12-07T18:26:31;1.22;89.32
57709;SHT35;42558;52.388;13.390;2022-12-07T18:29:06;1.20;89.41
57709;SHT35;42558;52.388;13.390;2022-12-07T18:31:37;1.18;89.58